SWOF weather

Ouro Fino Airport
Boa Vista, Roraima, Brazil

Public forecast

Using degrees Celsius for public forecast. Weather courtesy of forecast.io.

METAR (pilot weather report)

Closest report is Atlas Brasil Cantanhede Airport, 6.0 nm (11.2 km) SSE. Retrieved 2019/03/26 20:00 UTC (55 minutes ago):

SBBV 262000Z 04006KT 9999 FEW045 SCT080 35/17 Q1007

TAF (pilot weather forecast)

Closest forecast is Atlas Brasil Cantanhede Airport, 6.0 nm (11.2 km) SSE. Retrieved 2019/03/26 18:00 UTC (3 hours ago):

TAF SBBV 261600Z 2618/2718 09012KT 9999 FEW035 TX36/2619Z TN26/2707Z BECMG 2623/2701 CAVOK BECMG 2714/2716 9999 FEW035 RMK PEM